Main page
METAR-TAF:

METAR-TAF

Airports :

Sumburgh Airport

Sumburgh, Shetland, Scotland

latitude: 59-53N, longitude: 001-18W, elevation: 5 m

Current weather observation

The report was made 18 minutes ago, at 03:20 UTC
Wind 15 kt from the Northwest
Temperature 8°C
Humidity 76%
Pressure 1011 hPa
Visibility 10 km or more

METAR: EGPB 230320Z AUTO 32015KT 9999 SCT024/// 08/04 Q1011

Time: 04:38 (03:38 UTC)

Forecast

The report was made 1 hour and 41 minutes ago, at 01:57 UTC
Forecast valid from 23 at 03 UTC to 23 at 12 UTC
Wind 15 kt from the Northwest
Visibility 10 km or more
Scattered clouds at a height of 2000 ft
Probability 40% :
Temporary
from 23 at 03 UTC to 23 at 12 UTC
Wind 18 kt from the Northwest with gusts up to 28 kt
Visibility: 6000 m
rain showers

TAF: EGPB 230157Z 2303/2312 31015KT 9999 SCT020 PROB40 TEMPO 2303/2312 32018G28KT 6000 SHRA

Weather observations and forecasts of more than 4000 airports (METAR and TAF reports).

The available stations are represented by yellow and red dots on the map.

Hover mouse over dot to see the name of the station.

Then click to see weather observations and forecasts.

To change the map : click on the green buttons with a black cross to zoom in, on the green button with a dash to zoom out, or on the green arrows for adjacent maps.


METAR-TAF: